Time;durP1;ratioP1;P1;durP2;ratioP2;P2;SDS_P1;SDS_P2;PMS_P1;PMS_P2;Temp;Humidity;BMP_temperature;BMP_pressure;BME280_temperature;BME280_humidity;BME280_pressure;Samples;Min_cycle;Max_cycle;Signal;HPM_P1;HPM_P2
2023/05/20 00:01:33;;;;;;;16.17;9.23;;;;;;;13.73;62.41;95292.16;5085772;28;20044;-77
2023/05/20 00:03:58;;;;;;;14.15;9.20;;;;;;;13.70;62.46;95295.81;5085916;28;20111;-77
2023/05/20 00:06:24;;;;;;;13.57;9.70;;;;;;;13.67;62.47;95291.97;5087852;28;20028;-77
2023/05/20 00:08:49;;;;;;;18.35;9.90;;;;;;;13.66;62.64;95293.19;5086477;28;20032;-76
2023/05/20 00:11:14;;;;;;;12.07;9.18;;;;;;;13.63;62.97;95290.53;5069684;28;20032;-77
2023/05/20 00:13:40;;;;;;;12.65;9.48;;;;;;;13.56;63.07;95288.78;5086786;28;20024;-76
2023/05/20 00:16:06;;;;;;;16.00;9.43;;;;;;;13.56;62.97;95286.03;5087328;28;20024;-78
2023/05/20 00:18:31;;;;;;;15.77;9.52;;;;;;;13.50;63.11;95276.78;5087249;28;20448;-76
2023/05/20 00:20:57;;;;;;;14.00;9.18;;;;;;;13.50;63.02;95280.31;5068488;28;20035;-75
2023/05/20 00:23:22;;;;;;;14.93;9.18;;;;;;;13.48;62.84;95279.22;5068629;28;20020;-74
2023/05/20 00:25:48;;;;;;;12.52;9.00;;;;;;;13.45;62.79;95285.63;5068054;28;20442;-75
2023/05/20 00:28:14;;;;;;;11.90;8.52;;;;;;;13.43;62.80;95271.50;5087191;28;20043;-76
2023/05/20 00:30:40;;;;;;;11.57;9.38;;;;;;;13.42;62.96;95276.25;5067808;28;20513;-76
2023/05/20 00:33:06;;;;;;;12.95;9.38;;;;;;;13.39;62.99;95266.09;5086189;28;20020;-75
2023/05/20 00:35:31;;;;;;;11.55;8.48;;;;;;;13.41;63.01;95271.16;5086134;28;20106;-76
2023/05/20 00:37:57;;;;;;;15.13;9.48;;;;;;;13.36;62.98;95269.75;5085387;28;20086;-77
2023/05/20 00:40:23;;;;;;;12.63;9.02;;;;;;;13.32;63.10;95263.59;5068301;28;20020;-75
2023/05/20 00:42:49;;;;;;;13.88;8.63;;;;;;;13.33;62.71;95269.88;5085601;28;20046;-75
2023/05/20 00:45:15;;;;;;;12.40;8.35;;;;;;;13.32;62.83;95268.34;5085498;28;20486;-74
2023/05/20 00:47:41;;;;;;;12.80;8.40;;;;;;;13.26;62.67;95257.09;5084426;28;20505;-74
2023/05/20 00:50:09;;;;;;;11.30;8.70;;;;;;;13.24;62.57;95256.75;5068594;28;20393;-75
2023/05/20 00:52:35;;;;;;;11.48;8.23;;;;;;;13.17;62.59;95254.22;5084660;28;20039;-77
2023/05/20 00:55:01;;;;;;;10.68;8.32;;;;;;;13.09;62.80;95250.16;5084929;28;20020;-79
2023/05/20 00:57:27;;;;;;;10.40;7.88;;;;;;;13.05;63.03;95258.53;5067037;28;20028;-76
2023/05/20 00:59:52;;;;;;;10.40;7.68;;;;;;;12.89;63.51;95262.22;5084844;28;20032;-74
2023/05/20 01:02:18;;;;;;;11.98;8.00;;;;;;;12.80;63.93;95262.13;5084777;28;20046;-75
2023/05/20 01:04:46;;;;;;;13.43;8.82;;;;;;;12.76;64.05;95242.91;5084615;28;20403;-74
2023/05/20 01:07:12;;;;;;;12.05;7.93;;;;;;;12.45;65.03;95244.72;5085324;28;20031;-74
2023/05/20 01:09:39;;;;;;;10.45;8.60;;;;;;;12.50;64.88;95252.41;5084307;28;20175;-76
2023/05/20 01:12:33;;;;;;;13.88;8.38;;;;;;;12.68;64.41;95252.66;5085110;28;20043;-75
2023/05/20 01:15:05;;;;;;;13.65;8.23;;;;;;;12.70;64.23;95250.22;5074431;28;20055;-76
2023/05/20 01:17:45;;;;;;;14.32;8.27;;;;;;;12.70;64.13;95246.69;5084623;28;20097;-76
2023/05/20 01:20:12;;;;;;;14.55;7.53;;;;;;;12.76;64.21;95247.66;5086290;28;20108;-75
2023/05/20 01:22:38;;;;;;;12.05;8.57;;;;;;;12.78;64.17;95253.50;5084226;28;20048;-76
2023/05/20 01:25:04;;;;;;;12.32;7.90;;;;;;;12.81;64.08;95260.91;5068508;28;20028;-77
2023/05/20 01:27:30;;;;;;;10.85;7.95;;;;;;;12.84;64.01;95265.53;5084310;28;20126;-77
2023/05/20 01:29:55;;;;;;;21.30;8.70;;;;;;;12.79;64.06;95255.06;5085623;28;20031;-80
2023/05/20 01:32:31;;;;;;;13.05;9.05;;;;;;;12.80;63.96;95251.09;5067496;28;20123;-77
2023/05/20 01:34:58;;;;;;;10.85;7.80;;;;;;;12.84;63.97;95251.72;5083945;28;20020;-76
2023/05/20 01:37:24;;;;;;;13.77;8.15;;;;;;;12.84;63.75;95256.47;5090276;28;20016;-75
2023/05/20 01:39:54;;;;;;;11.93;8.20;;;;;;;12.83;63.76;95250.19;5084081;28;20042;-79
2023/05/20 01:42:20;;;;;;;11.73;7.57;;;;;;;12.82;64.00;95245.13;5068872;28;20039;-81
2023/05/20 01:44:45;;;;;;;13.40;8.07;;;;;;;12.79;64.04;95254.28;5085353;28;20406;-82
2023/05/20 01:47:11;;;;;;;12.15;7.47;;;;;;;12.75;64.20;95246.13;5085249;28;20501;-78
2023/05/20 01:49:36;;;;;;;12.27;7.50;;;;;;;12.76;63.79;95251.19;5067585;28;20032;-77
2023/05/20 01:52:02;;;;;;;10.82;7.88;;;;;;;12.76;63.71;95251.19;5084151;28;20027;-76
2023/05/20 01:54:27;;;;;;;11.82;8.63;;;;;;;12.75;64.00;95248.88;5085976;28;20425;-76
2023/05/20 01:56:53;;;;;;;10.80;8.40;;;;;;;12.74;63.85;95252.88;5085403;28;20027;-77
2023/05/20 01:59:18;;;;;;;12.95;8.02;;;;;;;12.74;63.71;95247.34;5085908;28;20028;-78
2023/05/20 02:01:44;;;;;;;12.50;8.43;;;;;;;12.74;63.74;95252.88;5084990;28;20460;-77
2023/05/20 02:04:10;;;;;;;12.75;7.85;;;;;;;12.75;63.69;95251.66;5085820;28;20032;-78
2023/05/20 02:06:36;;;;;;;12.30;7.93;;;;;;;12.73;63.69;95252.09;5085343;28;20370;-78
2023/05/20 02:09:02;;;;;;;9.70;7.60;;;;;;;12.69;63.40;95240.41;5085021;28;20466;-77
2023/05/20 02:11:27;;;;;;;11.43;7.93;;;;;;;12.68;63.38;95246.38;5088692;28;20020;-77
2023/05/20 02:13:53;;;;;;;11.88;8.68;;;;;;;12.62;63.79;95234.34;5089217;28;20031;-77
2023/05/20 02:16:18;;;;;;;11.20;8.10;;;;;;;12.59;63.90;95233.22;5088365;28;20028;-76
2023/05/20 02:18:44;;;;;;;14.05;8.90;;;;;;;12.57;63.78;95234.91;5087901;28;20410;-77
2023/05/20 02:21:09;;;;;;;17.42;10.80;;;;;;;12.58;64.39;95237.22;5088249;28;20063;-77
2023/05/20 02:23:34;;;;;;;14.68;10.43;;;;;;;12.54;64.72;95231.03;5088946;28;20016;-77
2023/05/20 02:26:00;;;;;;;16.45;10.32;;;;;;;12.47;64.96;95231.25;5088278;28;20028;-78
2023/05/20 02:28:25;;;;;;;20.08;10.45;;;;;;;12.38;65.21;95234.66;5087995;28;20307;-78
2023/05/20 02:30:51;;;;;;;14.73;10.40;;;;;;;12.26;65.92;95235.44;5088971;28;20070;-77
2023/05/20 02:33:17;;;;;;;16.35;11.07;;;;;;;12.15;66.35;95241.28;5094575;28;20023;-78
2023/05/20 02:35:43;;;;;;;16.02;11.15;;;;;;;12.16;66.15;95233.81;5087914;28;20020;-76
2023/05/20 02:38:09;;;;;;;13.10;9.13;;;;;;;12.17;66.41;95235.34;5089963;28;20028;-78
2023/05/20 02:40:34;;;;;;;13.15;9.95;;;;;;;12.17;66.58;95232.59;5088528;28;20028;-78
2023/05/20 02:43:00;;;;;;;15.55;9.70;;;;;;;12.23;66.46;95228.06;5088119;28;20473;-77
2023/05/20 02:45:26;;;;;;;14.85;10.63;;;;;;;12.21;66.18;95235.97;5088284;28;20120;-76
2023/05/20 02:47:51;;;;;;;15.98;9.85;;;;;;;12.28;66.12;95233.03;5089140;28;20115;-76
2023/05/20 02:50:17;;;;;;;15.07;9.95;;;;;;;12.28;65.74;95235.78;5088854;28;20035;-77
2023/05/20 02:52:44;;;;;;;16.40;10.20;;;;;;;12.32;65.72;95227.41;5088737;28;20020;-76
2023/05/20 02:55:10;;;;;;;11.30;9.05;;;;;;;12.32;65.18;95230.91;5088912;28;20012;-77
2023/05/20 02:57:37;;;;;;;14.80;9.73;;;;;;;12.33;65.09;95237.19;5088429;28;20494;-77
2023/05/20 03:00:07;;;;;;;14.55;9.48;;;;;;;12.32;64.89;95239.19;5087984;28;20115;-77
2023/05/20 03:02:32;;;;;;;14.32;10.10;;;;;;;12.31;64.87;95240.41;5086762;28;20112;-77
2023/05/20 03:04:58;;;;;;;16.25;9.35;;;;;;;12.28;64.98;95246.03;5087356;28;20604;-78
2023/05/20 03:07:24;;;;;;;14.90;9.95;;;;;;;12.25;64.95;95239.41;5088257;28;20472;-78
2023/05/20 03:09:49;;;;;;;15.25;9.77;;;;;;;12.25;64.91;95247.69;5088594;28;20034;-75
2023/05/20 03:12:15;;;;;;;14.13;9.32;;;;;;;12.26;64.87;95253.97;5070114;28;20024;-76
2023/05/20 03:14:40;;;;;;;13.43;9.23;;;;;;;12.23;64.94;95259.16;5086645;28;20046;-76
2023/05/20 03:17:06;;;;;;;14.50;9.75;;;;;;;12.25;65.03;95266.97;5087625;28;20030;-78
2023/05/20 03:19:31;;;;;;;13.60;9.35;;;;;;;12.26;65.02;95263.00;5087713;28;20390;-76
2023/05/20 03:21:56;;;;;;;18.38;10.13;;;;;;;12.27;65.00;95272.03;5086462;28;20107;-76
2023/05/20 03:24:22;;;;;;;13.98;9.30;;;;;;;12.26;64.90;95267.75;5087639;28;20116;-77
2023/05/20 03:26:48;;;;;;;16.92;10.55;;;;;;;12.26;65.02;95271.28;5088951;28;20056;-77
2023/05/20 03:29:13;;;;;;;13.90;10.32;;;;;;;12.23;64.87;95269.41;5093684;28;20031;-77
2023/05/20 03:31:39;;;;;;;15.23;10.10;;;;;;;12.24;64.87;95262.69;5087968;28;20024;-77
2023/05/20 03:34:04;;;;;;;15.18;10.68;;;;;;;12.22;64.89;95257.63;5088255;28;20024;-77
2023/05/20 03:36:30;;;;;;;15.50;10.80;;;;;;;12.21;65.25;95264.34;5087631;28;20101;-77
2023/05/20 03:38:55;;;;;;;14.70;10.40;;;;;;;12.21;65.09;95269.06;5087064;28;20484;-77
2023/05/20 03:41:21;;;;;;;16.95;10.75;;;;;;;12.19;64.98;95275.00;5087269;28;20058;-77
2023/05/20 03:43:46;;;;;;;21.15;10.48;;;;;;;12.19;65.02;95271.50;5087995;28;20437;-76
2023/05/20 03:46:12;;;;;;;18.02;9.90;;;;;;;12.19;65.02;95271.50;5069333;28;20119;-78
2023/05/20 03:48:37;;;;;;;20.50;10.57;;;;;;;12.18;65.07;95276.22;5087608;28;20627;-80
2023/05/20 03:51:03;;;;;;;17.00;10.88;;;;;;;12.21;64.96;95272.63;5087785;28;20099;-78
2023/05/20 03:53:28;;;;;;;17.70;10.73;;;;;;;12.22;65.17;95278.91;5086186;28;20214;-78
2023/05/20 03:55:53;;;;;;;19.33;12.45;;;;;;;12.24;65.28;95279.22;5086696;28;20341;-78
2023/05/20 03:58:22;;;;;;;18.67;11.30;;;;;;;12.23;65.27;95280.44;5087092;28;20115;-77
2023/05/20 04:00:47;;;;;;;21.98;11.55;;;;;;;12.26;65.21;95282.28;5086573;28;20038;-76
2023/05/20 04:03:13;;;;;;;20.58;11.52;;;;;;;12.29;65.23;95283.41;5087185;28;20016;-77
2023/05/20 04:05:38;;;;;;;18.40;11.13;;;;;;;12.32;65.12;95286.06;5086196;28;20031;-78
2023/05/20 04:08:04;;;;;;;20.85;12.60;;;;;;;12.35;65.33;95287.94;5086113;28;20028;-77
2023/05/20 04:10:31;;;;;;;22.00;13.63;;;;;;;12.36;65.53;95300.50;5087464;28;20043;-79
2023/05/20 04:12:57;;;;;;;24.25;13.45;;;;;;;12.38;66.12;95305.56;5086562;28;20062;-79
2023/05/20 04:15:22;;;;;;;21.77;12.55;;;;;;;12.43;66.24;95294.78;5085612;28;20464;-78
2023/05/20 04:17:49;;;;;;;17.67;13.43;;;;;;;12.46;66.00;95299.41;5069201;28;20043;-77
2023/05/20 04:20:14;;;;;;;20.88;14.23;;;;;;;12.48;65.89;95296.22;5068737;28;20414;-78
2023/05/20 04:22:40;;;;;;;20.98;14.07;;;;;;;12.49;65.89;95303.28;5088869;28;20024;-77
2023/05/20 04:25:06;;;;;;;18.85;13.52;;;;;;;12.52;65.74;95296.88;5092692;28;20066;-78
2023/05/20 04:27:36;;;;;;;20.60;13.77;;;;;;;12.56;65.59;95294.00;5085557;28;20379;-77
2023/05/20 04:30:02;;;;;;;21.30;13.20;;;;;;;12.58;65.51;95286.84;5086952;28;20509;-78
2023/05/20 04:32:28;;;;;;;20.38;14.02;;;;;;;12.61;65.62;95290.69;5086079;28;20034;-78
2023/05/20 04:34:54;;;;;;;18.77;13.20;;;;;;;12.68;65.49;95298.78;5086171;28;20020;-78
2023/05/20 04:37:21;;;;;;;21.33;13.48;;;;;;;12.71;65.55;95295.13;5068812;28;20575;-78
2023/05/20 04:39:48;;;;;;;20.85;14.30;;;;;;;12.75;65.59;95301.31;5087176;28;20028;-78
2023/05/20 04:42:14;;;;;;;19.95;13.13;;;;;;;12.79;65.73;95301.97;5085972;28;20111;-79
2023/05/20 04:44:39;;;;;;;18.05;13.98;;;;;;;12.82;65.70;95295.56;5085579;28;20115;-78
2023/05/20 04:47:06;;;;;;;21.48;13.95;;;;;;;12.89;65.64;95294.56;5086822;28;20024;-78
2023/05/20 04:49:33;;;;;;;19.50;13.45;;;;;;;12.93;65.70;95301.50;5068002;28;20366;-78
2023/05/20 04:51:59;;;;;;;19.40;13.25;;;;;;;12.97;65.72;95304.94;5085675;28;20024;-78
2023/05/20 04:54:25;;;;;;;27.73;13.65;;;;;;;13.04;65.81;95312.19;5085234;28;20097;-77
2023/05/20 04:56:50;;;;;;;18.80;13.55;;;;;;;13.09;65.49;95295.09;5085389;28;20031;-78
2023/05/20 04:59:16;;;;;;;24.55;14.57;;;;;;;13.16;65.28;95303.13;5085075;28;20035;-79
2023/05/20 05:01:41;;;;;;;22.25;13.27;;;;;;;13.20;65.23;95301.03;5086543;28;20036;-79
2023/05/20 05:04:07;;;;;;;20.77;13.20;;;;;;;13.25;65.14;95297.72;5085175;28;20032;-79
2023/05/20 05:06:32;;;;;;;21.80;14.10;;;;;;;13.32;64.82;95295.94;5085234;28;20027;-79
2023/05/20 05:08:57;;;;;;;19.08;13.77;;;;;;;13.36;64.92;95302.91;5086364;28;20035;-79
2023/05/20 05:11:23;;;;;;;20.70;14.52;;;;;;;13.41;64.79;95304.31;5067949;28;20028;-79
2023/05/20 05:13:48;;;;;;;21.13;13.75;;;;;;;13.48;64.75;95309.59;5086426;28;20220;-79
2023/05/20 05:16:14;;;;;;;19.05;14.02;;;;;;;13.57;64.41;95303.38;5084826;28;20073;-79
2023/05/20 05:18:39;;;;;;;24.25;15.23;;;;;;;13.62;64.56;95300.81;5070760;28;20050;-79
2023/05/20 05:21:07;;;;;;;20.85;14.70;;;;;;;13.68;64.57;95298.25;5090738;28;20016;-79
2023/05/20 05:23:32;;;;;;;18.52;13.85;;;;;;;13.74;64.83;95299.22;5086332;28;20036;-78
2023/05/20 05:25:58;;;;;;;26.52;15.68;;;;;;;13.80;64.62;95300.94;5084571;28;20032;-77
2023/05/20 05:28:23;;;;;;;17.90;13.90;;;;;;;13.90;64.78;95298.28;5067775;28;20024;-76
2023/05/20 05:30:49;;;;;;;21.17;15.55;;;;;;;13.96;64.70;95299.22;5085950;28;20059;-78
2023/05/20 05:33:14;;;;;;;25.65;15.40;;;;;;;14.05;64.41;95296.53;5067201;28;20062;-78
2023/05/20 05:35:43;;;;;;;21.10;14.18;;;;;;;14.14;63.87;95287.53;5086420;28;20024;-78
2023/05/20 05:38:09;;;;;;;21.73;15.02;;;;;;;14.20;63.88;95296.78;5085722;28;20495;-79
2023/05/20 05:40:35;;;;;;;22.67;16.05;;;;;;;14.28;63.94;95284.25;5068172;28;20418;-77
2023/05/20 05:43:00;;;;;;;20.58;14.55;;;;;;;14.40;63.53;95290.91;5084113;28;20539;-78
2023/05/20 05:45:25;;;;;;;23.08;16.67;;;;;;;14.43;64.03;95295.50;5070975;28;20032;-77
2023/05/20 05:47:51;;;;;;;20.42;15.38;;;;;;;14.51;63.72;95292.06;5088839;28;20035;-76
2023/05/20 05:50:16;;;;;;;24.58;16.15;;;;;;;14.58;63.62;95294.56;5088523;28;20613;-77
2023/05/20 05:52:42;;;;;;;21.00;15.27;;;;;;;14.69;63.13;95299.69;5089132;28;20024;-77
2023/05/20 05:55:08;;;;;;;21.52;16.08;;;;;;;14.78;63.05;95299.69;5087959;28;20032;-78
2023/05/20 05:57:33;;;;;;;24.38;16.48;;;;;;;14.86;63.07;95280.81;5072288;28;20020;-77
2023/05/20 05:59:59;;;;;;;25.17;15.88;;;;;;;15.01;63.05;95292.84;5089384;28;20422;-77
2023/05/20 06:02:25;;;;;;;20.52;14.38;;;;;;;15.07;62.69;95277.19;5088441;28;20040;-78
2023/05/20 06:04:50;;;;;;;19.17;14.32;;;;;;;15.13;62.04;95280.88;5087729;28;20486;-77
2023/05/20 06:07:16;;;;;;;19.85;13.88;;;;;;;15.27;61.15;95287.09;5089650;28;20020;-76
2023/05/20 06:09:42;;;;;;;17.50;13.50;;;;;;;15.37;60.82;95288.66;5090168;28;20410;-79
2023/05/20 06:12:07;;;;;;;16.30;13.43;;;;;;;15.48;60.70;95277.84;5089470;28;20023;-80
2023/05/20 06:14:32;;;;;;;17.33;12.63;;;;;;;15.58;60.38;95279.41;5096226;28;20031;-79
2023/05/20 06:16:58;;;;;;;18.13;12.48;;;;;;;15.72;60.04;95280.84;5091217;28;20035;-79
2023/05/20 06:19:23;;;;;;;17.10;11.20;;;;;;;15.85;59.50;95284.22;5088362;28;20460;-77
2023/05/20 06:21:49;;;;;;;17.58;11.82;;;;;;;15.92;58.89;95283.91;5088952;28;20031;-79
2023/05/20 06:24:14;;;;;;;16.02;12.05;;;;;;;15.96;58.92;95280.22;5089201;28;20060;-80
2023/05/20 06:26:40;;;;;;;15.70;11.98;;;;;;;16.13;58.52;95286.97;5089797;28;20028;-80
2023/05/20 06:29:05;;;;;;;19.45;12.30;;;;;;;16.23;58.45;95282.94;5087726;28;20555;-80
2023/05/20 06:31:30;;;;;;;21.13;12.98;;;;;;;16.38;58.22;95277.50;5071713;28;20023;-79
2023/05/20 06:33:56;;;;;;;19.67;12.20;;;;;;;16.46;58.04;95270.41;5088614;28;20028;-75
2023/05/20 06:36:26;;;;;;;17.85;11.55;;;;;;;16.54;57.50;95268.06;5089762;28;20016;-78
2023/05/20 06:38:52;;;;;;;15.07;11.02;;;;;;;16.59;56.43;95259.88;5070596;28;20028;-78
2023/05/20 06:41:17;;;;;;;17.35;11.02;;;;;;;16.75;55.85;95263.53;5089129;28;20024;-78
2023/05/20 06:43:42;;;;;;;17.73;10.95;;;;;;;16.79;55.50;95253.00;5087196;28;20446;-77
2023/05/20 06:46:08;;;;;;;17.55;10.93;;;;;;;16.92;54.85;95248.03;5087067;28;20069;-79
2023/05/20 06:48:33;;;;;;;15.57;10.05;;;;;;;17.11;54.67;95240.34;5087421;28;20490;-78
2023/05/20 06:51:00;;;;;;;15.30;9.70;;;;;;;17.20;54.40;95243.84;5086511;28;20082;-77
2023/05/20 06:53:26;;;;;;;14.20;8.88;;;;;;;17.29;53.48;95233.91;5089117;28;20080;-77
2023/05/20 06:56:20;;;;;;;10.88;7.70;;;;;;;17.48;51.03;95252.75;5086821;28;20465;-87
2023/05/20 06:58:46;;;;;;;11.00;8.23;;;;;;;17.60;51.90;95247.41;5084888;28;20126;-79
2023/05/20 07:01:11;;;;;;;8.65;7.43;;;;;;;17.72;50.64;95251.97;5069407;28;20129;-78
2023/05/20 07:03:37;;;;;;;9.45;6.28;;;;;;;17.73;49.30;95251.50;5086927;28;20422;-74
2023/05/20 07:06:02;;;;;;;10.60;7.03;;;;;;;17.80;49.13;95255.16;5088108;28;20475;-77
2023/05/20 07:08:28;;;;;;;13.20;7.72;;;;;;;17.85;49.19;95252.50;5069743;28;20028;-76
2023/05/20 07:10:56;;;;;;;10.75;7.63;;;;;;;17.99;49.91;95254.50;5074747;28;20122;-76
2023/05/20 07:13:24;;;;;;;11.38;7.22;;;;;;;18.18;49.23;95244.00;5086397;28;20395;-81
2023/05/20 07:15:50;;;;;;;8.80;7.05;;;;;;;18.36;48.76;95250.63;5088193;28;20035;-78
2023/05/20 07:18:16;;;;;;;8.32;6.68;;;;;;;18.40;48.74;95243.59;5087209;28;20288;-82
2023/05/20 07:20:43;;;;;;;8.60;6.90;;;;;;;18.42;47.27;95237.56;5087330;28;20020;-80
2023/05/20 07:23:08;;;;;;;10.32;6.75;;;;;;;18.60;46.73;95242.91;5086941;28;20020;-82
2023/05/20 07:25:33;;;;;;;8.77;6.85;;;;;;;18.75;46.70;95249.25;5069610;28;20020;-75
2023/05/20 07:27:59;;;;;;;10.80;6.55;;;;;;;18.91;46.23;95241.63;5070095;28;20105;-80
2023/05/20 07:30:25;;;;;;;9.07;7.13;;;;;;;18.96;45.88;95238.91;5085959;28;20580;-80
2023/05/20 07:32:50;;;;;;;8.80;5.90;;;;;;;19.04;45.12;95237.28;5088498;28;20158;-78
2023/05/20 07:35:16;;;;;;;10.80;5.90;;;;;;;19.21;45.13;95243.09;5085885;28;20111;-77
2023/05/20 07:37:41;;;;;;;10.45;6.35;;;;;;;19.36;45.11;95240.97;5069702;28;20024;-79
2023/05/20 07:40:08;;;;;;;8.25;6.38;;;;;;;19.48;45.18;95241.13;5087599;28;20024;-79
2023/05/20 07:42:34;;;;;;;9.85;6.18;;;;;;;19.54;44.88;95248.28;5086465;28;20048;-80
2023/05/20 07:44:59;;;;;;;10.30;6.63;;;;;;;19.69;44.22;95239.91;5069762;28;20149;-80
2023/05/20 07:47:26;;;;;;;8.48;5.85;;;;;;;19.83;43.97;95238.25;5085811;28;20040;-79
2023/05/20 07:49:51;;;;;;;7.63;5.70;;;;;;;19.94;43.24;95230.00;5086901;28;20032;-80
2023/05/20 07:52:17;;;;;;;9.60;6.47;;;;;;;20.12;43.13;95238.06;5085847;28;20035;-80
2023/05/20 07:54:43;;;;;;;11.55;6.78;;;;;;;20.12;42.04;95237.28;5086884;28;20157;-80
2023/05/20 07:57:08;;;;;;;10.40;6.00;;;;;;;20.20;42.57;95246.78;5068921;28;20406;-80
2023/05/20 07:59:33;;;;;;;8.23;5.75;;;;;;;20.28;42.67;95230.34;5069643;28;20100;-80
2023/05/20 08:01:59;;;;;;;8.43;6.13;;;;;;;20.41;42.86;95239.88;5084788;28;20135;-80
2023/05/20 08:04:25;;;;;;;9.43;5.85;;;;;;;20.54;42.61;95235.94;5069607;28;20502;-80
2023/05/20 08:06:52;;;;;;;7.53;5.93;;;;;;;20.71;42.65;95236.84;5091288;28;20047;-84
2023/05/20 08:09:18;;;;;;;9.98;5.65;;;;;;;20.79;42.08;95235.09;5068526;28;20050;-80
2023/05/20 08:11:43;;;;;;;11.82;6.30;;;;;;;20.84;41.81;95231.59;5086549;28;20028;-79
2023/05/20 08:14:08;;;;;;;7.65;6.20;;;;;;;20.90;42.09;95226.81;5087181;28;20020;-80
2023/05/20 08:16:35;;;;;;;11.57;7.22;;;;;;;21.05;41.83;95226.66;5085951;28;20028;-80
2023/05/20 08:19:00;;;;;;;7.47;5.63;;;;;;;21.14;41.02;95228.47;5085716;28;20455;-81
2023/05/20 08:21:26;;;;;;;8.55;5.95;;;;;;;21.32;41.61;95236.47;5087022;28;20039;-81
2023/05/20 08:23:51;;;;;;;7.45;5.85;;;;;;;21.57;40.82;95231.25;5085978;28;20524;-76
2023/05/20 08:26:17;;;;;;;8.65;6.18;;;;;;;21.58;41.04;95227.97;5086469;28;20032;-78
2023/05/20 08:28:42;;;;;;;7.47;5.80;;;;;;;21.62;41.56;95217.31;5069285;28;20401;-76
2023/05/20 08:31:08;;;;;;;9.75;6.68;;;;;;;21.83;40.99;95222.69;5085195;28;20039;-76
2023/05/20 08:33:34;;;;;;;11.88;6.28;;;;;;;21.83;40.72;95219.91;5086781;28;20500;-76
2023/05/20 08:35:59;;;;;;;6.53;5.57;;;;;;;21.90;40.88;95231.34;5068207;28;20089;-74
2023/05/20 08:38:25;;;;;;;7.93;6.35;;;;;;;22.06;40.96;95224.28;5085128;28;20034;-77
2023/05/20 08:40:51;;;;;;;8.10;6.15;;;;;;;22.17;40.30;95227.13;5085352;28;20590;-76
2023/05/20 08:43:17;;;;;;;8.98;6.85;;;;;;;22.36;40.07;95221.03;5084944;28;20028;-75
2023/05/20 08:45:42;;;;;;;8.40;5.80;;;;;;;22.33;40.10;95220.03;5085020;28;20055;-76
2023/05/20 08:48:11;;;;;;;7.65;5.72;;;;;;;22.46;39.18;95228.69;5084863;28;20506;-77
2023/05/20 08:50:38;;;;;;;10.43;6.47;;;;;;;22.61;39.46;95216.47;5085255;28;20026;-76
2023/05/20 08:53:03;;;;;;;7.18;5.50;;;;;;;22.63;38.65;95219.53;5084956;28;20066;-76
2023/05/20 08:55:58;;;;;;;8.38;5.55;;;;;;;22.60;38.64;95224.13;5085040;28;20063;-74
2023/05/20 08:58:24;;;;;;;7.15;5.25;;;;;;;22.81;37.67;95227.41;5086123;28;20047;-79
2023/05/20 09:00:51;;;;;;;5.88;5.15;;;;;;;22.84;38.44;95220.78;5090250;28;20438;-79
2023/05/20 09:03:22;;;;;;;6.35;5.00;;;;;;;22.86;37.32;95215.44;5069460;28;20028;-81
2023/05/20 09:05:48;;;;;;;7.35;5.32;;;;;;;23.00;37.37;95213.66;5085681;28;20469;-78
2023/05/20 09:08:13;;;;;;;6.90;5.50;;;;;;;23.05;37.63;95208.06;5068592;28;20028;-79
2023/05/20 09:10:40;;;;;;;7.72;5.13;;;;;;;22.89;36.63;95211.66;5084534;28;20410;-78
2023/05/20 09:13:06;;;;;;;9.15;5.57;;;;;;;22.99;37.30;95204.47;5086235;28;20024;-79
2023/05/20 09:15:32;;;;;;;7.32;6.22;;;;;;;23.25;37.75;95209.00;5084664;28;20082;-78
2023/05/20 09:18:06;;;;;;;7.90;5.03;;;;;;;23.45;36.64;95196.69;5085407;28;20028;-76
2023/05/20 09:20:33;;;;;;;6.10;5.40;;;;;;;23.59;36.62;95187.22;5084397;28;20107;-77
2023/05/20 09:23:00;;;;;;;10.35;6.43;;;;;;;23.82;36.31;95199.13;5084544;28;20024;-79
2023/05/20 09:25:26;;;;;;;7.30;5.47;;;;;;;23.92;36.12;95189.13;5067938;28;20100;-79
2023/05/20 09:27:51;;;;;;;6.63;5.63;;;;;;;24.00;36.03;95187.28;5085737;28;20020;-78
2023/05/20 09:30:20;;;;;;;7.00;5.13;;;;;;;24.21;35.55;95189.72;5086035;28;20093;-79
2023/05/20 09:32:55;;;;;;;9.55;6.15;;;;;;;24.56;35.33;95186.91;5084717;28;20112;-79
2023/05/20 09:35:25;;;;;;;7.68;5.95;;;;;;;24.71;34.36;95186.50;5067158;28;20151;-78
2023/05/20 09:37:57;;;;;;;8.73;6.55;;;;;;;24.85;34.24;95195.84;5084578;28;20024;-79
2023/05/20 09:40:27;;;;;;;8.43;5.75;;;;;;;24.93;33.86;95188.34;5085865;28;20047;-78
2023/05/20 09:43:02;;;;;;;7.10;5.38;;;;;;;25.02;33.53;95192.88;5084464;28;20024;-78
2023/05/20 09:45:27;;;;;;;7.72;5.80;;;;;;;24.96;33.51;95190.13;5085759;28;20024;-78
2023/05/20 09:47:53;;;;;;;9.02;6.47;;;;;;;25.06;33.56;95184.94;5084343;28;20024;-77
2023/05/20 09:50:20;;;;;;;10.55;7.35;;;;;;;25.30;33.57;95182.13;5067463;28;20031;-78
2023/05/20 09:52:48;;;;;;;8.82;6.07;;;;;;;25.45;32.80;95176.06;5083778;28;20040;-79
2023/05/20 09:55:14;;;;;;;6.47;5.28;;;;;;;25.60;32.61;95173.56;5086195;28;20024;-78
2023/05/20 09:57:40;;;;;;;7.15;6.05;;;;;;;25.73;31.31;95166.50;5091547;28;20482;-79
2023/05/20 10:00:07;;;;;;;8.45;5.55;;;;;;;25.76;31.71;95180.31;5084659;28;20032;-78
2023/05/20 10:02:33;;;;;;;9.02;6.20;;;;;;;25.95;31.55;95169.81;5067700;28;20051;-80
2023/05/20 10:05:02;;;;;;;8.55;5.57;;;;;;;26.03;31.41;95158.69;5067783;28;20039;-77
2023/05/20 10:07:56;;;;;;;5.32;4.70;;;;;;;26.05;31.38;95161.75;5085686;28;20084;-79
2023/05/20 10:10:51;;;;;;;8.75;6.28;;;;;;;26.18;30.72;95156.16;5085699;28;20116;-79
2023/05/20 10:13:51;;;;;;;6.55;5.13;;;;;;;26.36;30.43;95151.78;5085844;28;20028;-79
2023/05/20 10:16:53;;;;;;;11.27;6.25;;;;;;;26.69;30.48;95146.91;5084410;28;20031;-78
2023/05/20 10:19:28;;;;;;;6.78;5.35;;;;;;;26.97;30.02;95146.41;5084178;28;20024;-79
2023/05/20 10:22:01;;;;;;;6.30;4.70;;;;;;;26.93;29.95;95143.16;5072349;28;20502;-78
2023/05/20 10:24:31;;;;;;;8.77;4.93;;;;;;;26.82;29.63;95132.06;5068505;28;20036;-78
2023/05/20 10:26:57;;;;;;;6.05;4.47;;;;;;;26.79;29.58;95131.09;5065255;28;20025;-78
2023/05/20 10:29:22;;;;;;;6.88;4.68;;;;;;;26.85;29.53;95133.81;5062362;28;20055;-78
2023/05/20 10:31:50;;;;;;;6.75;4.18;;;;;;;27.07;29.01;95127.78;5068135;28;20503;-78
2023/05/20 10:34:17;;;;;;;5.57;4.55;;;;;;;27.08;28.74;95129.31;5069715;28;20040;-78
2023/05/20 10:36:52;;;;;;;6.90;4.82;;;;;;;27.27;28.48;95129.19;5067832;28;20115;-77
2023/05/20 10:39:18;;;;;;;5.68;4.03;;;;;;;27.22;28.19;95125.16;5069455;28;20082;-77
2023/05/20 10:41:43;;;;;;;4.93;4.05;;;;;;;27.06;27.59;95117.00;5068859;28;20441;-79
2023/05/20 10:44:09;;;;;;;6.97;4.65;;;;;;;27.08;28.49;95115.22;5068565;28;20058;-78
2023/05/20 10:46:34;;;;;;;7.43;4.30;;;;;;;27.30;28.47;95104.75;5050671;28;20025;-78
2023/05/20 10:49:04;;;;;;;6.53;4.38;;;;;;;27.48;28.48;95093.34;5066515;28;20055;-79
2023/05/20 10:51:34;;;;;;;9.63;5.32;;;;;;;27.69;28.04;95101.91;5069858;28;20028;-78
2023/05/20 10:54:00;;;;;;;7.68;4.85;;;;;;;27.96;28.30;95096.16;5070539;28;20523;-79
2023/05/20 10:56:26;;;;;;;10.10;4.95;;;;;;;27.96;27.49;95085.63;5067725;28;20021;-78
2023/05/20 10:58:52;;;;;;;6.07;4.63;;;;;;;27.84;26.86;95092.09;5066957;28;20522;-79
2023/05/20 11:01:21;;;;;;;6.18;4.90;;;;;;;27.83;26.75;95082.84;5033842;28;20045;-78
2023/05/20 11:03:48;;;;;;;7.63;5.95;;;;;;;27.98;26.34;95090.72;5067456;28;20021;-78
2023/05/20 11:06:16;;;;;;;7.70;5.13;;;;;;;28.05;26.66;95082.34;5066468;28;20504;-79
2023/05/20 11:08:44;;;;;;;8.32;5.47;;;;;;;28.02;26.01;95085.50;5067803;28;20071;-79
2023/05/20 11:11:10;;;;;;;7.78;5.80;;;;;;;28.14;26.69;95089.56;5066555;28;20078;-79
2023/05/20 11:13:36;;;;;;;8.80;4.85;;;;;;;28.18;26.56;95087.16;5066797;28;20032;-78
2023/05/20 11:16:01;;;;;;;8.50;5.00;;;;;;;28.31;26.47;95086.34;5068079;28;20082;-79
2023/05/20 11:18:30;;;;;;;6.90;4.93;;;;;;;28.15;26.83;95085.44;5067065;28;20024;-79
2023/05/20 11:20:57;;;;;;;6.95;5.22;;;;;;;28.09;26.70;95073.50;5050368;28;20052;-78
2023/05/20 11:23:22;;;;;;;9.93;4.80;;;;;;;28.20;26.67;95076.06;5049900;28;20020;-78